CYGP

Gaspé (Michel-Pouliot) Airport

ICAO Code CYGP
IATA Code YGP
Name Gaspé (Michel-Pouliot) Airport
Location Gaspé, Quebec, CA
Elevation 112 Feet / 34.1 Meters
Latitude 48.77500000
Longitude -64.48166667
METAR CYGP 182331Z 08003KT 040V100 3/8SM FG VV002 18/18 A2976 RMK FG8 SLP081 DENSITY ALT 700FT
Extra information Display NOTAMS
Display Charts
Runway Length Width Surface Elevation
10 5488 ft 150 ft ASP 112 ft
28 5488 ft 150 ft ASP 89 ft

Mandatory Routes

Gaspé (Michel-Pouliot) Airport

Direction Destination Level Remark Type Route
ARR FR W H&L RNAV FLEUR VODIX OMPOG YGP
DEP TO W H RNAV MIVAX